Time;durP1;ratioP1;P1;durP2;ratioP2;P2;SDS_P1;SDS_P2;PMS_P1;PMS_P2;Temp;Humidity;BMP_temperature;BMP_pressure;BME280_temperature;BME280_humidity;BME280_pressure;Samples;Min_cycle;Max_cycle;Signal;HPM_P1;HPM_P2
2021/09/04 10:02:08;;;;;;;4.73;3.43;;;;;;;;;;9956500;27;15102214;-84
2021/09/04 10:07:09;;;;;;;6.78;3.95;;;;;;;;;;10448253;28;20028;-85
2021/09/04 10:12:10;;;;;;;4.90;3.50;;;;;;;;;;10439681;28;20106;-84
2021/09/04 10:17:11;;;;;;;4.40;2.80;;;;;;;;;;10458663;28;20032;-85
2021/09/04 10:22:14;;;;;;;8.80;3.40;;;;;;;;;;10423778;28;20071;-85
2021/09/04 10:27:37;;;;;;;5.43;3.33;;;;;;;;;;10453462;28;20319;-85
2021/09/04 10:32:37;;;;;;;7.72;3.33;;;;;;;;;;10427206;28;20132;-85
2021/09/04 10:37:45;;;;;;;14.25;3.55;;;;;;;;;;10436185;28;20040;-85
2021/09/04 10:42:45;;;;;;;9.17;3.90;;;;;;;;;;10443556;28;20024;-86
2021/09/04 10:47:52;;;;;;;7.38;3.08;;;;;;;;;;10448234;28;20046;-85
2021/09/04 10:52:55;;;;;;;5.72;3.08;;;;;;;;;;10436949;28;20524;-87
2021/09/04 10:58:06;;;;;;;11.48;3.50;;;;;;;;;;10450604;28;20551;-87
2021/09/04 11:03:10;;;;;;;4.07;3.15;;;;;;;;;;10459343;28;20032;-87
2021/09/04 11:08:12;;;;;;;4.20;3.53;;;;;;;;;;10409716;28;20179;-86
2021/09/04 11:13:13;;;;;;;8.43;3.50;;;;;;;;;;10413028;28;20028;-86
2021/09/04 11:18:15;;;;;;;8.70;3.60;;;;;;;;;;10427432;28;20024;-85
2021/09/04 11:23:26;;;;;;;5.47;3.92;;;;;;;;;;10469161;28;20463;-84
2021/09/04 11:28:31;;;;;;;5.43;3.20;;;;;;;;;;10517320;28;20024;-84
2021/09/04 11:33:32;;;;;;;4.32;3.15;;;;;;;;;;10483692;28;20028;-84
2021/09/04 11:38:42;;;;;;;3.60;2.90;;;;;;;;;;10486743;28;20078;-84
2021/09/04 11:43:42;;;;;;;3.40;3.10;;;;;;;;;;10471717;28;20020;-85
2021/09/04 11:48:45;;;;;;;3.42;3.05;;;;;;;;;;10456733;28;20051;-84
2021/09/04 11:53:45;;;;;;;3.63;3.30;;;;;;;;;;10471936;28;20463;-84
2021/09/04 11:58:46;;;;;;;3.72;3.08;;;;;;;;;;10479528;28;20406;-85
2021/09/04 12:03:46;;;;;;;4.75;3.20;;;;;;;;;;10475899;28;20479;-84
2021/09/04 12:08:47;;;;;;;3.22;2.90;;;;;;;;;;10461778;28;20024;-84
2021/09/04 12:13:48;;;;;;;7.50;3.13;;;;;;;;;;10495511;28;20017;-84
2021/09/04 12:18:48;;;;;;;6.60;3.70;;;;;;;;;;10488897;28;20021;-84
2021/09/04 12:23:51;;;;;;;5.13;3.13;;;;;;;;;;10464660;28;20031;-84
2021/09/04 12:29:09;;;;;;;3.58;3.03;;;;;;;;;;10461779;28;20035;-84
2021/09/04 12:34:19;;;;;;;3.00;2.67;;;;;;;;;;10497773;28;20032;-84
2021/09/04 12:39:22;;;;;;;3.38;2.85;;;;;;;;;;10474262;28;20020;-84
2021/09/04 12:44:38;;;;;;;4.15;3.50;;;;;;;;;;10487553;28;20093;-84
2021/09/04 12:49:59;;;;;;;4.75;3.42;;;;;;;;;;10465879;28;20032;-85
2021/09/04 12:55:00;;;;;;;4.47;3.15;;;;;;;;;;10487174;28;20133;-85
2021/09/04 13:00:09;;;;;;;4.50;3.20;;;;;;;;;;10459653;28;20036;-85
2021/09/04 13:05:14;;;;;;;4.72;3.03;;;;;;;;;;10473154;28;20040;-85
2021/09/04 13:10:20;;;;;;;4.75;2.97;;;;;;;;;;10478365;28;20051;-84
2021/09/04 13:15:21;;;;;;;4.72;3.05;;;;;;;;;;10472806;28;20025;-84
2021/09/04 13:20:22;;;;;;;3.63;2.90;;;;;;;;;;10458424;28;20080;-84
2021/09/04 13:25:22;;;;;;;3.35;2.80;;;;;;;;;;10469818;28;20055;-84
2021/09/04 13:30:23;;;;;;;3.10;2.75;;;;;;;;;;10475196;28;20021;-84
2021/09/04 13:35:27;;;;;;;4.35;3.65;;;;;;;;;;10491471;28;20371;-85
2021/09/04 13:40:27;;;;;;;4.47;3.17;;;;;;;;;;10433166;28;20373;-84
2021/09/04 13:45:28;;;;;;;4.13;3.60;;;;;;;;;;10430185;28;20483;-85
2021/09/04 13:50:28;;;;;;;4.80;3.55;;;;;;;;;;10433534;28;20534;-85
2021/09/04 13:55:29;;;;;;;6.78;3.65;;;;;;;;;;10401820;28;20332;-85
2021/09/04 14:00:29;;;;;;;3.85;3.38;;;;;;;;;;10414828;28;20040;-85
2021/09/04 14:05:30;;;;;;;8.85;4.03;;;;;;;;;;10434501;28;20025;-85
2021/09/04 14:10:30;;;;;;;5.63;3.70;;;;;;;;;;10422774;28;20021;-85
2021/09/04 14:15:31;;;;;;;5.07;3.78;;;;;;;;;;10422548;28;20423;-84
2021/09/04 14:20:31;;;;;;;5.85;3.92;;;;;;;;;;10427802;28;20307;-83
2021/09/04 14:25:32;;;;;;;6.32;3.97;;;;;;;;;;10433498;28;20104;-84
2021/09/04 14:30:32;;;;;;;4.80;3.20;;;;;;;;;;10437751;28;20453;-83
2021/09/04 14:35:33;;;;;;;6.47;3.85;;;;;;;;;;10381391;28;20542;-84
2021/09/04 14:40:34;;;;;;;10.40;3.63;;;;;;;;;;10412304;28;20427;-84
2021/09/04 14:45:34;;;;;;;7.32;4.03;;;;;;;;;;10403764;28;20500;-84
2021/09/04 14:50:35;;;;;;;6.82;4.45;;;;;;;;;;10427779;28;20497;-84
2021/09/04 14:55:35;;;;;;;10.43;4.13;;;;;;;;;;10415720;28;20383;-83
2021/09/04 15:00:38;;;;;;;6.10;3.92;;;;;;;;;;10468283;28;20095;-82
2021/09/04 15:05:38;;;;;;;10.77;4.22;;;;;;;;;;10458459;28;20025;-82
2021/09/04 15:10:39;;;;;;;9.23;3.92;;;;;;;;;;10471979;28;20021;-83
2021/09/04 15:15:39;;;;;;;4.28;3.60;;;;;;;;;;10420530;28;20028;-83
2021/09/04 15:20:40;;;;;;;5.63;3.60;;;;;;;;;;10422492;28;20060;-83
2021/09/04 15:25:40;;;;;;;8.15;4.10;;;;;;;;;;10419739;28;20067;-83
2021/09/04 15:30:41;;;;;;;4.95;3.58;;;;;;;;;;10419546;28;20024;-83
2021/09/04 15:35:41;;;;;;;6.72;3.45;;;;;;;;;;10406770;28;20029;-84
2021/09/04 15:40:42;;;;;;;4.57;3.85;;;;;;;;;;10411584;28;20028;-83
2021/09/04 15:45:42;;;;;;;7.10;3.95;;;;;;;;;;10391776;28;20523;-83
2021/09/04 15:50:43;;;;;;;8.27;4.20;;;;;;;;;;10412932;28;20033;-83
2021/09/04 15:55:43;;;;;;;5.38;3.88;;;;;;;;;;10392363;28;20024;-83
2021/09/04 16:00:44;;;;;;;6.25;3.65;;;;;;;;;;10392112;28;20613;-84
2021/09/04 16:05:44;;;;;;;8.63;3.95;;;;;;;;;;10416014;28;20056;-84
2021/09/04 16:10:45;;;;;;;4.68;3.50;;;;;;;;;;10426587;28;20116;-84
2021/09/04 16:15:46;;;;;;;5.45;3.80;;;;;;;;;;10422397;28;20125;-85
2021/09/04 16:20:46;;;;;;;4.85;3.65;;;;;;;;;;10415815;28;20071;-85
2021/09/04 16:25:47;;;;;;;4.20;3.50;;;;;;;;;;10418652;28;20037;-84
2021/09/04 16:30:47;;;;;;;5.80;3.97;;;;;;;;;;10378411;28;20026;-85
2021/09/04 16:35:48;;;;;;;5.75;3.35;;;;;;;;;;10459272;28;20021;-85
2021/09/04 16:40:51;;;;;;;9.27;3.95;;;;;;;;;;10484815;28;20486;-85
2021/09/04 16:45:52;;;;;;;3.40;3.10;;;;;;;;;;10481413;28;20451;-85
2021/09/04 16:50:52;;;;;;;6.10;3.97;;;;;;;;;;10444928;28;20025;-84
2021/09/04 16:55:53;;;;;;;9.38;3.35;;;;;;;;;;10444819;28;20025;-84
2021/09/04 17:00:54;;;;;;;4.57;3.47;;;;;;;;;;10422318;28;20042;-84
2021/09/04 17:05:54;;;;;;;5.00;3.50;;;;;;;;;;10421220;28;20112;-84
2021/09/04 17:10:54;;;;;;;3.93;3.13;;;;;;;;;;10442420;28;20017;-85
2021/09/04 17:15:55;;;;;;;7.45;3.53;;;;;;;;;;10446179;28;20422;-85
2021/09/04 17:20:59;;;;;;;7.00;3.80;;;;;;;;;;10437149;28;20139;-85
2021/09/04 17:25:59;;;;;;;5.38;3.95;;;;;;;;;;10440087;28;20529;-84
2021/09/04 17:31:00;;;;;;;6.10;3.00;;;;;;;;;;10418979;28;20362;-84
2021/09/04 17:36:01;;;;;;;5.30;3.60;;;;;;;;;;10419342;28;20104;-84
2021/09/04 17:41:02;;;;;;;12.15;4.22;;;;;;;;;;10438962;28;20174;-84
2021/09/04 17:46:06;;;;;;;8.32;3.25;;;;;;;;;;10427447;28;20024;-85
2021/09/04 17:51:07;;;;;;;6.47;4.38;;;;;;;;;;10418648;28;20100;-84
2021/09/04 17:56:08;;;;;;;9.35;3.78;;;;;;;;;;10422604;28;20427;-84
2021/09/04 18:01:08;;;;;;;7.07;3.72;;;;;;;;;;10433579;28;20107;-84
2021/09/04 18:06:09;;;;;;;12.82;6.22;;;;;;;;;;10430396;28;20108;-85
2021/09/04 18:11:09;;;;;;;4.40;3.20;;;;;;;;;;10424038;28;20028;-84
2021/09/04 18:16:10;;;;;;;4.82;3.10;;;;;;;;;;10452378;28;20456;-84
2021/09/04 18:21:10;;;;;;;6.07;2.80;;;;;;;;;;10444143;28;20176;-84
2021/09/04 18:26:13;;;;;;;4.70;3.40;;;;;;;;;;10434610;28;20031;-84
2021/09/04 18:31:13;;;;;;;4.47;3.10;;;;;;;;;;10430820;28;20440;-84
2021/09/04 18:36:14;;;;;;;5.32;3.40;;;;;;;;;;10435990;28;20021;-84
2021/09/04 18:41:15;;;;;;;4.28;3.30;;;;;;;;;;10423825;28;20039;-83
2021/09/04 18:46:15;;;;;;;4.00;3.20;;;;;;;;;;10447845;28;20020;-84
2021/09/04 18:51:17;;;;;;;3.95;2.95;;;;;;;;;;10451510;28;20013;-83
2021/09/04 18:56:18;;;;;;;4.25;3.40;;;;;;;;;;10434071;28;20021;-84
2021/09/04 19:01:19;;;;;;;3.92;3.25;;;;;;;;;;10424667;28;20049;-84
2021/09/04 19:06:19;;;;;;;3.25;2.95;;;;;;;;;;10451040;28;20031;-83
2021/09/04 19:11:20;;;;;;;4.95;3.42;;;;;;;;;;10421657;28;20021;-84
2021/09/04 19:16:20;;;;;;;4.13;3.20;;;;;;;;;;10421450;28;20140;-84
2021/09/04 19:21:21;;;;;;;6.43;3.33;;;;;;;;;;10435073;28;20033;-84
2021/09/04 19:26:22;;;;;;;4.13;2.80;;;;;;;;;;10432778;28;20127;-85
2021/09/04 19:31:22;;;;;;;3.92;3.20;;;;;;;;;;10420297;28;20079;-85
2021/09/04 19:36:23;;;;;;;6.63;3.10;;;;;;;;;;10441253;28;20079;-83
2021/09/04 19:41:23;;;;;;;5.07;3.47;;;;;;;;;;10644848;22;20140;-86
2021/09/04 19:46:24;;;;;;;5.00;3.20;;;;;;;;;;10443219;28;20420;-85
2021/09/04 19:51:25;;;;;;;4.70;3.57;;;;;;;;;;10460342;28;20032;-85
2021/09/04 19:56:25;;;;;;;4.07;3.47;;;;;;;;;;10460501;28;20028;-85
2021/09/04 20:01:26;;;;;;;5.87;3.67;;;;;;;;;;10441821;28;20029;-86
2021/09/04 20:06:27;;;;;;;4.32;3.35;;;;;;;;;;10460743;28;20519;-86
2021/09/04 20:11:27;;;;;;;4.63;3.30;;;;;;;;;;10442482;28;20421;-86
2021/09/04 20:16:28;;;;;;;5.25;3.50;;;;;;;;;;10460369;28;20536;-85
2021/09/04 20:21:28;;;;;;;4.50;3.10;;;;;;;;;;10459119;28;20384;-86
2021/09/04 20:26:29;;;;;;;4.10;3.10;;;;;;;;;;10459507;28;20104;-86
2021/09/04 20:31:29;;;;;;;4.50;3.58;;;;;;;;;;10441648;28;20044;-86
2021/09/04 20:41:33;;;;;;;4.85;3.53;;;;;;;;;;10442646;28;20140;-84
2021/09/04 20:46:34;;;;;;;6.83;3.20;;;;;;;;;;10459428;28;20092;-84
2021/09/04 20:51:35;;;;;;;4.72;3.17;;;;;;;;;;10442019;28;20028;-84
2021/09/04 20:56:35;;;;;;;4.93;3.47;;;;;;;;;;10460293;28;20017;-84
2021/09/04 21:01:36;;;;;;;12.85;3.00;;;;;;;;;;10447178;28;20020;-83
2021/09/04 21:06:36;;;;;;;10.70;6.30;;;;;;;;;;10457805;28;20025;-79
2021/09/04 21:11:38;;;;;;;11.95;6.53;;;;;;;;;;10456866;28;20424;-82
2021/09/04 21:16:39;;;;;;;14.27;6.93;;;;;;;;;;10457873;28;20021;-79
2021/09/04 21:21:40;;;;;;;19.85;7.75;;;;;;;;;;10457830;28;20508;-78
2021/09/04 21:26:40;;;;;;;11.93;6.90;;;;;;;;;;10456802;28;20111;-80
2021/09/04 21:31:40;;;;;;;24.83;6.73;;;;;;;;;;10456923;28;20037;-79
2021/09/04 21:36:41;;;;;;;8.13;6.40;;;;;;;;;;10457091;28;20446;-79
2021/09/04 21:41:41;;;;;;;12.90;6.87;;;;;;;;;;10456399;28;20094;-78
2021/09/04 21:46:42;;;;;;;9.90;6.53;;;;;;;;;;10456614;28;21015;-80
2021/09/04 21:51:42;;;;;;;20.27;6.27;;;;;;;;;;10456154;28;20114;-80
2021/09/04 21:56:43;;;;;;;13.80;7.43;;;;;;;;;;10456000;28;20442;-82
2021/09/04 22:01:43;;;;;;;14.23;6.88;;;;;;;;;;10455662;28;20061;-80
2021/09/04 22:06:43;;;;;;;30.87;7.10;;;;;;;;;;10455634;28;20571;-81
2021/09/04 22:11:44;;;;;;;25.47;6.37;;;;;;;;;;10370189;28;20144;-80
2021/09/04 22:16:44;;;;;;;11.27;5.47;;;;;;;;;;10373615;28;20026;-81
2021/09/04 22:21:45;;;;;;;15.80;5.47;;;;;;;;;;10355668;28;20112;-80
2021/09/04 22:26:45;;;;;;;10.90;5.78;;;;;;;;;;10355258;28;20030;-80
2021/09/04 22:31:46;;;;;;;20.80;5.70;;;;;;;;;;10359116;28;20034;-80
2021/09/04 22:42:05;;;;;;;24.40;5.82;;;;;;;;;;10372941;28;20463;-80
2021/09/04 22:47:06;;;;;;;9.30;4.88;;;;;;;;;;10345981;28;20037;-80
2021/09/04 22:52:07;;;;;;;8.38;4.95;;;;;;;;;;10371410;28;20030;-81
2021/09/04 22:57:07;;;;;;;5.20;4.40;;;;;;;;;;10364701;28;20026;-82
2021/09/04 23:02:08;;;;;;;6.55;4.30;;;;;;;;;;10377770;28;20079;-82
2021/09/04 23:07:08;;;;;;;8.23;4.80;;;;;;;;;;10365541;28;20033;-82
2021/09/04 23:12:09;;;;;;;6.23;4.20;;;;;;;;;;10356772;28;20026;-82
2021/09/04 23:17:10;;;;;;;6.28;4.63;;;;;;;;;;10379137;28;20036;-82
2021/09/04 23:22:11;;;;;;;19.48;4.97;;;;;;;;;;10348057;28;20030;-83
2021/09/04 23:27:11;;;;;;;6.87;4.53;;;;;;;;;;10379151;28;20026;-83
2021/09/04 23:32:12;;;;;;;6.70;4.63;;;;;;;;;;10377984;28;20471;-83
2021/09/04 23:37:12;;;;;;;10.48;4.03;;;;;;;;;;10378202;28;20359;-84
2021/09/04 23:42:12;;;;;;;9.70;4.33;;;;;;;;;;10352194;28;20537;-83
2021/09/04 23:47:13;;;;;;;10.43;4.80;;;;;;;;;;10364827;28;20456;-83
2021/09/04 23:52:13;;;;;;;7.80;3.97;;;;;;;;;;10378398;28;20450;-84
2021/09/04 23:57:14;;;;;;;15.23;4.37;;;;;;;;;;10351539;28;20033;-84
